createdAt,value
2019-05-11T00:00:33.365Z,86.52
2019-05-11T00:03:01.801Z,86.28
2019-05-11T00:05:30.214Z,87.12
2019-05-11T00:07:58.637Z,86.38
2019-05-11T00:10:27.052Z,87.11
2019-05-11T00:12:55.479Z,86.97
2019-05-11T00:15:23.875Z,87.57
2019-05-11T00:17:52.288Z,87.24
2019-05-11T00:20:20.698Z,86.73
2019-05-11T00:22:49.893Z,86.60
2019-05-11T00:25:18.313Z,84.81
2019-05-11T00:27:46.729Z,84.99
2019-05-11T00:30:15.368Z,87.09
2019-05-11T00:32:43.806Z,87.09
2019-05-11T00:35:12.385Z,88.47
2019-05-11T00:37:40.873Z,88.78
2019-05-11T00:40:14.228Z,89.44
2019-05-11T00:42:40.028Z,89.95
2019-05-11T00:45:08.641Z,90.90
2019-05-11T00:47:37.031Z,91.07
2019-05-11T00:50:08.480Z,91.59
2019-05-11T00:52:36.972Z,91.47
2019-05-11T00:55:08.580Z,91.92
2019-05-11T00:57:37.026Z,92.14
2019-05-11T01:00:08.015Z,92.47
2019-05-11T01:02:36.431Z,91.98
2019-05-11T01:05:06.834Z,91.77
2019-05-11T01:07:35.338Z,91.44
2019-05-11T01:10:21.768Z,90.87
2019-05-11T01:12:37.838Z,90.09
2019-05-11T01:15:06.727Z,90.81
2019-05-11T01:17:35.139Z,90.81
2019-05-11T01:20:04.805Z,91.14
2019-05-11T01:22:33.235Z,91.95
2019-05-11T01:25:01.682Z,92.44
2019-05-11T01:27:30.120Z,92.40
2019-05-11T01:29:58.557Z,92.77
2019-05-11T01:32:26.988Z,92.86
2019-05-11T01:34:55.412Z,93.17
2019-05-11T01:37:23.827Z,93.45
2019-05-11T01:39:52.278Z,93.23
2019-05-11T01:42:20.789Z,93.27
2019-05-11T01:44:49.253Z,92.96
2019-05-11T01:47:17.664Z,93.35
2019-05-11T01:49:46.146Z,93.49
2019-05-11T01:52:14.653Z,93.35
2019-05-11T01:54:43.082Z,93.31
2019-05-11T01:57:11.495Z,93.63
2019-05-11T01:59:39.899Z,93.37
2019-05-11T02:02:08.328Z,93.40
2019-05-11T02:04:36.783Z,93.08
2019-05-11T02:07:05.387Z,92.87
2019-05-11T02:09:33.799Z,92.83
2019-05-11T02:12:02.242Z,92.93
2019-05-11T02:14:30.725Z,93.02
2019-05-11T02:16:59.174Z,93.06
2019-05-11T02:19:27.564Z,93.11
2019-05-11T02:21:56.024Z,93.21
2019-05-11T02:24:24.547Z,93.58
2019-05-11T02:26:52.972Z,93.85
2019-05-11T02:29:21.402Z,93.94
2019-05-11T02:31:49.841Z,94.08
2019-05-11T02:34:18.256Z,93.82
2019-05-11T02:36:46.649Z,93.70
2019-05-11T02:39:15.099Z,93.76
2019-05-11T02:41:43.531Z,93.66
2019-05-11T02:44:11.920Z,93.97
2019-05-11T02:46:40.373Z,93.48
2019-05-11T02:49:08.786Z,93.53
2019-05-11T02:51:38.353Z,93.21
2019-05-11T02:54:06.752Z,93.90
2019-05-11T02:56:35.196Z,93.46
2019-05-11T02:59:03.719Z,93.62
2019-05-11T03:01:32.136Z,93.50
2019-05-11T03:04:00.550Z,93.40
2019-05-11T03:06:28.940Z,93.53
2019-05-11T03:08:57.372Z,93.28
2019-05-11T03:11:25.780Z,93.28
2019-05-11T03:13:54.196Z,93.30
2019-05-11T03:16:22.614Z,93.82
2019-05-11T03:18:51.309Z,94.25
2019-05-11T03:21:19.733Z,94.23
2019-05-11T03:23:48.145Z,94.18
2019-05-11T03:26:16.584Z,94.27
2019-05-11T03:28:45.064Z,94.10
2019-05-11T03:31:13.500Z,94.08
2019-05-11T03:33:41.904Z,94.17
2019-05-11T03:36:10.754Z,94.18
2019-05-11T03:38:39.187Z,94.59
2019-05-11T03:41:09.146Z,95.01
2019-05-11T03:43:37.574Z,94.92
2019-05-11T03:46:06.031Z,94.96
2019-05-11T03:48:34.468Z,95.07
2019-05-11T03:51:02.914Z,95.35
2019-05-11T03:53:31.313Z,95.51
2019-05-11T03:55:59.722Z,95.90
2019-05-11T03:58:28.158Z,96.64
2019-05-11T04:00:56.646Z,96.90
2019-05-11T04:03:25.075Z,96.88
2019-05-11T04:05:53.492Z,97.10
2019-05-11T04:08:21.951Z,97.28
2019-05-11T04:10:50.346Z,97.24
2019-05-11T04:13:18.735Z,97.07
2019-05-11T04:15:47.179Z,97.11
2019-05-11T04:18:15.582Z,97.01
2019-05-11T04:20:43.968Z,96.90
2019-05-11T04:23:12.389Z,96.84
2019-05-11T04:25:40.815Z,96.89
2019-05-11T04:28:09.269Z,96.74
2019-05-11T04:30:37.652Z,96.66
2019-05-11T04:33:06.061Z,96.74
2019-05-11T04:35:34.468Z,96.69
2019-05-11T04:38:02.884Z,96.84
2019-05-11T04:40:31.299Z,97.02
2019-05-11T04:42:59.764Z,97.16
2019-05-11T04:45:28.177Z,97.16
2019-05-11T04:47:56.592Z,97.04
2019-05-11T04:50:25.011Z,96.96
2019-05-11T04:52:53.474Z,96.85
2019-05-11T04:55:22.180Z,96.76
2019-05-11T04:57:50.634Z,96.79
2019-05-11T05:00:19.576Z,96.67
2019-05-11T05:02:48.003Z,96.68
2019-05-11T05:05:16.459Z,96.71
2019-05-11T05:07:48.991Z,96.62
2019-05-11T05:10:19.858Z,96.46
2019-05-11T05:12:50.360Z,96.55
2019-05-11T05:15:15.272Z,96.23
2019-05-11T05:17:43.695Z,96.27
2019-05-11T05:20:12.388Z,96.58
2019-05-11T05:22:40.824Z,96.58
2019-05-11T05:25:09.377Z,96.25
2019-05-11T05:27:37.821Z,96.15
2019-05-11T05:30:07.405Z,96.41
2019-05-11T05:32:35.976Z,96.40
2019-05-11T05:35:05.917Z,96.43
2019-05-11T05:37:34.317Z,96.20
2019-05-11T05:40:02.739Z,96.19
2019-05-11T05:42:31.166Z,95.90
2019-05-11T05:44:59.607Z,95.91
2019-05-11T05:47:28.025Z,95.98
2019-05-11T05:49:56.466Z,95.77
2019-05-11T05:52:24.948Z,95.84
2019-05-11T05:54:53.362Z,95.79
2019-05-11T05:57:22.522Z,95.89
2019-05-11T05:59:50.971Z,95.91
2019-05-11T06:02:19.400Z,95.97
2019-05-11T06:04:47.827Z,95.78
2019-05-11T06:07:16.263Z,95.77
2019-05-11T06:12:11.827Z,95.60
2019-05-11T06:14:40.216Z,95.59
2019-05-11T06:17:08.649Z,95.47
2019-05-11T06:19:37.069Z,95.37
2019-05-11T06:22:05.496Z,95.30
2019-05-11T06:24:33.890Z,95.38
2019-05-11T06:27:02.311Z,95.63
2019-05-11T06:29:30.762Z,95.45
2019-05-11T06:31:59.189Z,95.42
2019-05-11T06:34:27.617Z,95.41
2019-05-11T06:36:56.045Z,95.73
2019-05-11T06:39:24.471Z,95.52
2019-05-11T06:41:53.011Z,95.47
2019-05-11T06:44:21.410Z,95.56
2019-05-11T06:46:50.766Z,95.43
2019-05-11T06:49:19.165Z,95.15
2019-05-11T06:51:47.594Z,95.28
2019-05-11T06:54:16.022Z,95.36
2019-05-11T06:56:44.436Z,95.36
2019-05-11T06:59:12.950Z,95.22
2019-05-11T07:01:41.423Z,95.32
2019-05-11T07:04:09.840Z,95.42
2019-05-11T07:06:38.290Z,95.25
2019-05-11T07:09:07.745Z,95.44
2019-05-11T07:11:36.255Z,95.33
2019-05-11T07:14:19.211Z,95.07
2019-05-11T07:16:35.058Z,94.95
2019-05-11T07:19:03.659Z,94.90
2019-05-11T07:21:33.707Z,94.47
2019-05-11T07:24:03.059Z,94.56
2019-05-11T07:26:31.488Z,94.63
2019-05-11T07:28:59.911Z,94.65
2019-05-11T07:31:28.354Z,93.86
2019-05-11T07:33:58.709Z,93.54
2019-05-11T07:36:28.255Z,92.92
2019-05-11T07:38:58.040Z,93.12
2019-05-11T07:41:28.119Z,93.33
2019-05-11T07:43:58.879Z,93.40
2019-05-11T07:46:28.790Z,93.60
2019-05-11T07:48:58.510Z,93.83
2019-05-11T07:51:28.768Z,94.27
2019-05-11T07:53:57.921Z,94.54
2019-05-11T07:56:28.456Z,94.37
2019-05-11T07:58:58.111Z,93.90
2019-05-11T08:01:28.144Z,94.19
2019-05-11T08:03:58.582Z,94.08
2019-05-11T08:06:28.581Z,94.17
2019-05-11T08:08:58.752Z,93.88
2019-05-11T08:11:31.106Z,94.04
2019-05-11T08:13:58.396Z,93.91
2019-05-11T08:16:28.527Z,94.39
2019-05-11T08:18:58.863Z,94.16
2019-05-11T08:21:28.414Z,94.32
2019-05-11T08:23:58.730Z,94.12
2019-05-11T08:26:28.331Z,94.31
2019-05-11T08:28:57.873Z,94.00
2019-05-11T08:31:27.939Z,94.05
2019-05-11T08:33:58.305Z,94.15
2019-05-11T08:36:28.562Z,94.22
2019-05-11T08:38:58.547Z,93.59
2019-05-11T08:41:27.998Z,94.21
2019-05-11T08:43:58.712Z,94.00
2019-05-11T08:46:27.904Z,93.88
2019-05-11T08:48:56.476Z,94.05
2019-05-11T08:51:24.906Z,93.69
2019-05-11T08:53:54.085Z,93.08
2019-05-11T08:56:22.514Z,93.81
2019-05-11T08:58:50.937Z,93.44
2019-05-11T09:01:19.334Z,93.36
2019-05-11T09:03:48.033Z,93.46
2019-05-11T09:06:17.981Z,93.97
2019-05-11T09:08:49.134Z,93.38
2019-05-11T09:11:19.000Z,94.01
2019-05-11T09:13:48.843Z,93.20
2019-05-11T09:16:18.967Z,93.56
2019-05-11T09:18:48.091Z,92.97
2019-05-11T09:21:18.943Z,93.38
2019-05-11T09:23:48.627Z,92.93
2019-05-11T09:26:18.083Z,93.30
2019-05-11T09:28:47.606Z,93.33
2019-05-11T09:31:18.615Z,93.50
2019-05-11T09:33:48.031Z,92.68
2019-05-11T09:36:18.068Z,93.12
2019-05-11T09:38:49.001Z,93.51
2019-05-11T09:41:18.057Z,92.62
2019-05-11T09:43:48.349Z,92.96
2019-05-11T09:46:18.917Z,93.51
2019-05-11T09:48:48.360Z,93.31
2019-05-11T09:51:18.383Z,93.87
2019-05-11T09:53:48.327Z,93.55
2019-05-11T09:56:18.333Z,94.31
2019-05-11T09:58:47.971Z,93.89
2019-05-11T10:01:18.229Z,94.22
2019-05-11T10:03:48.225Z,94.37
2019-05-11T10:06:18.997Z,93.84
2019-05-11T10:08:48.786Z,93.35
2019-05-11T10:11:18.993Z,93.88
2019-05-11T10:13:47.834Z,93.72
2019-05-11T10:16:17.896Z,92.68
2019-05-11T10:18:48.866Z,92.50
2019-05-11T10:21:18.735Z,93.06
2019-05-11T10:23:48.954Z,92.22
2019-05-11T10:26:18.744Z,90.84
2019-05-11T10:28:48.206Z,91.71
2019-05-11T10:31:18.087Z,90.84
2019-05-11T10:33:48.921Z,91.71
2019-05-11T10:36:18.937Z,91.75
2019-05-11T10:38:48.673Z,92.73
2019-05-11T10:41:18.115Z,92.18
2019-05-11T10:43:48.876Z,93.35
2019-05-11T10:46:23.123Z,93.15
2019-05-11T10:48:48.155Z,91.60
2019-05-11T10:51:18.428Z,91.97
2019-05-11T10:53:51.628Z,89.51
2019-05-11T10:56:17.850Z,90.97
2019-05-11T10:58:48.220Z,91.75
2019-05-11T11:01:18.102Z,91.78
2019-05-11T11:03:48.409Z,91.66
2019-05-11T11:06:18.798Z,92.36
2019-05-11T11:08:48.641Z,91.80
2019-05-11T11:11:18.470Z,91.08
2019-05-11T11:13:47.988Z,90.21
2019-05-11T11:16:32.690Z,89.76
2019-05-11T11:18:48.572Z,90.38
2019-05-11T11:21:22.403Z,90.13
2019-05-11T11:23:48.018Z,89.92
2019-05-11T11:26:18.533Z,90.71
2019-05-11T11:28:47.708Z,90.42
2019-05-11T11:31:18.393Z,90.29
2019-05-11T11:33:48.623Z,91.59
2019-05-11T11:36:17.890Z,91.61
2019-05-11T11:38:47.773Z,90.52
2019-05-11T11:41:18.632Z,90.36
2019-05-11T11:43:48.281Z,89.81
2019-05-11T11:46:18.866Z,88.87
2019-05-11T11:48:48.836Z,85.44
2019-05-11T11:51:18.786Z,84.14
2019-05-11T11:53:47.951Z,85.91
2019-05-11T11:56:18.876Z,85.39
2019-05-11T11:58:48.825Z,85.45
2019-05-11T12:01:18.926Z,86.35
2019-05-11T12:03:48.718Z,83.83
2019-05-11T12:06:18.390Z,84.83
2019-05-11T12:08:49.784Z,83.59
2019-05-11T12:11:18.749Z,84.02
2019-05-11T12:13:47.737Z,83.58
2019-05-11T12:16:18.032Z,83.71
2019-05-11T12:18:48.734Z,84.01
2019-05-11T12:21:18.530Z,83.49
2019-05-11T12:23:48.515Z,81.90
2019-05-11T12:26:17.819Z,82.94
2019-05-11T12:28:48.691Z,80.55
2019-05-11T12:31:18.436Z,76.59
2019-05-11T12:33:48.291Z,75.75
2019-05-11T12:36:18.775Z,77.01
2019-05-11T12:38:48.907Z,77.15
2019-05-11T12:41:19.109Z,73.83
2019-05-11T12:43:48.970Z,75.44
2019-05-11T12:46:18.824Z,75.89
2019-05-11T12:48:48.427Z,75.21
2019-05-11T12:51:18.726Z,75.58
2019-05-11T12:53:47.732Z,75.30
2019-05-11T12:56:18.751Z,74.46
2019-05-11T12:58:49.125Z,73.83
2019-05-11T13:01:18.824Z,75.40
2019-05-11T13:03:49.284Z,73.18
2019-05-11T13:06:19.028Z,73.17
2019-05-11T13:08:48.320Z,71.32
2019-05-11T13:11:18.683Z,70.06
2019-05-11T13:13:48.482Z,70.81
2019-05-11T13:16:18.302Z,70.01
2019-05-11T13:18:48.798Z,69.81
2019-05-11T13:21:18.363Z,68.15
2019-05-11T13:23:48.905Z,67.08
2019-05-11T13:26:18.044Z,69.70
2019-05-11T13:28:48.505Z,67.81
2019-05-11T13:31:18.672Z,67.50
2019-05-11T13:33:47.959Z,66.33
2019-05-11T13:36:18.629Z,65.84
2019-05-11T13:38:48.405Z,67.66
2019-05-11T13:41:18.874Z,68.04
2019-05-11T13:43:48.602Z,67.01
2019-05-11T13:46:18.093Z,68.98
2019-05-11T13:48:47.741Z,71.14
2019-05-11T13:51:18.299Z,68.64
2019-05-11T13:53:48.254Z,67.31
2019-05-11T13:56:18.448Z,71.20
2019-05-11T13:58:48.786Z,67.29
2019-05-11T14:01:18.448Z,69.22
2019-05-11T14:03:48.429Z,70.81
2019-05-11T14:06:18.371Z,66.64
2019-05-11T14:08:48.171Z,66.64
2019-05-11T14:11:18.138Z,67.87
2019-05-11T14:13:48.045Z,68.07
2019-05-11T14:16:18.667Z,68.77
2019-05-11T14:18:48.864Z,67.81
2019-05-11T14:21:18.563Z,67.79
2019-05-11T14:23:48.413Z,66.38
2019-05-11T14:26:19.261Z,64.10
2019-05-11T14:28:47.957Z,65.63
2019-05-11T14:31:18.563Z,66.07
2019-05-11T14:33:48.692Z,67.49
2019-05-11T14:36:18.553Z,67.17
2019-05-11T14:38:48.702Z,66.73
2019-05-11T14:41:18.186Z,66.73
2019-05-11T14:43:48.887Z,66.42
2019-05-11T14:46:18.146Z,67.57
2019-05-11T14:48:48.173Z,64.98
2019-05-11T14:51:18.102Z,64.97
2019-05-11T14:53:48.130Z,65.12
2019-05-11T14:56:19.087Z,64.64
2019-05-11T14:58:49.033Z,64.14
2019-05-11T15:01:18.339Z,63.23
2019-05-11T15:03:48.561Z,62.18
2019-05-11T15:06:18.844Z,63.47
2019-05-11T15:08:47.962Z,61.78
2019-05-11T15:11:18.905Z,60.57
2019-05-11T15:13:48.784Z,61.11
2019-05-11T15:16:18.715Z,60.21
2019-05-11T15:18:48.501Z,59.52
2019-05-11T15:21:18.981Z,58.09
2019-05-11T15:23:47.864Z,58.17
2019-05-11T15:26:18.511Z,59.07
2019-05-11T15:28:48.629Z,57.31
2019-05-11T15:31:21.862Z,58.15
2019-05-11T15:33:48.827Z,58.67
2019-05-11T15:36:19.044Z,56.97
2019-05-11T15:38:48.104Z,57.94
2019-05-11T15:41:17.703Z,58.08
2019-05-11T15:43:48.070Z,58.44
2019-05-11T15:46:19.496Z,57.58
2019-05-11T15:48:56.696Z,57.54
2019-05-11T15:51:18.840Z,56.89
2019-05-11T15:53:47.589Z,57.05
2019-05-11T15:56:19.041Z,56.88
2019-05-11T15:58:48.592Z,59.99
2019-05-11T16:01:18.659Z,60.49
2019-05-11T16:03:49.637Z,59.40
2019-05-11T16:06:18.572Z,57.41
2019-05-11T16:08:47.242Z,58.49
2019-05-11T16:11:18.031Z,57.33
2019-05-11T16:13:48.221Z,58.90
2019-05-11T16:16:15.930Z,59.56
2019-05-11T16:18:44.358Z,57.68
2019-05-11T16:21:12.811Z,57.70
2019-05-11T16:23:41.230Z,58.43
2019-05-11T16:26:09.634Z,58.04
2019-05-11T16:28:38.459Z,57.28
2019-05-11T16:31:09.093Z,58.42
2019-05-11T16:33:37.161Z,58.31
2019-05-11T16:36:05.630Z,58.36
2019-05-11T16:38:34.035Z,58.52
2019-05-11T16:41:02.443Z,57.93
2019-05-11T16:43:30.864Z,58.01
2019-05-11T16:45:59.376Z,57.25
2019-05-11T16:48:28.590Z,57.77
2019-05-11T16:50:57.996Z,58.34
2019-05-11T16:53:28.441Z,59.00
2019-05-11T16:55:57.730Z,58.07
2019-05-11T16:58:27.886Z,58.20
2019-05-11T17:00:58.290Z,59.16
2019-05-11T17:03:27.884Z,58.64
2019-05-11T17:05:58.712Z,58.68
2019-05-11T17:08:27.694Z,58.68
2019-05-11T17:10:59.600Z,58.75
2019-05-11T17:13:28.702Z,59.67
2019-05-11T17:15:58.264Z,59.85
2019-05-11T17:18:28.301Z,59.16
2019-05-11T17:20:58.475Z,58.33
2019-05-11T17:23:30.540Z,59.05
2019-05-11T17:25:57.861Z,60.35
2019-05-11T17:28:26.479Z,60.74
2019-05-11T17:30:54.990Z,60.85
2019-05-11T17:33:23.408Z,61.86
2019-05-11T17:35:52.010Z,63.62
2019-05-11T17:38:20.448Z,64.61
2019-05-11T17:40:48.876Z,63.46
2019-05-11T17:43:18.146Z,62.96
2019-05-11T17:45:48.032Z,62.48
2019-05-11T17:48:17.843Z,62.30
2019-05-11T17:50:46.359Z,62.56
2019-05-11T17:53:14.786Z,62.88
2019-05-11T17:55:43.223Z,62.18
2019-05-11T17:58:11.687Z,63.32
2019-05-11T18:00:40.152Z,63.10
2019-05-11T18:03:11.447Z,62.86
2019-05-11T18:05:38.880Z,63.49
2019-05-11T18:08:08.741Z,63.25
2019-05-11T18:10:38.474Z,63.29
2019-05-11T18:13:07.025Z,64.22
2019-05-11T18:15:37.898Z,64.65
2019-05-11T18:20:32.910Z,65.19
2019-05-11T18:23:01.299Z,65.12
2019-05-11T18:25:29.800Z,65.83
2019-05-11T18:27:59.143Z,66.15
2019-05-11T18:30:29.298Z,66.07
2019-05-11T18:32:59.530Z,67.06
2019-05-11T18:35:28.029Z,66.83
2019-05-11T18:37:56.413Z,66.64
2019-05-11T18:40:24.869Z,67.09
2019-05-11T18:42:53.295Z,67.50
2019-05-11T18:45:21.719Z,68.20
2019-05-11T18:47:50.145Z,68.86
2019-05-11T18:50:30.092Z,68.93
2019-05-11T18:52:49.314Z,69.34
2019-05-11T18:55:18.891Z,69.90
2019-05-11T18:57:48.958Z,70.43
2019-05-11T19:00:19.340Z,70.98
2019-05-11T19:02:49.479Z,70.88
2019-05-11T19:05:18.371Z,71.52
2019-05-11T19:07:48.204Z,71.78
2019-05-11T19:10:17.168Z,72.36
2019-05-11T19:12:45.619Z,73.07
2019-05-11T19:15:14.803Z,73.58
2019-05-11T19:17:43.822Z,74.00
2019-05-11T19:20:13.280Z,74.23
2019-05-11T19:22:41.868Z,74.73
2019-05-11T19:25:10.437Z,74.98
2019-05-11T19:27:38.949Z,75.41
2019-05-11T19:30:08.292Z,76.12
2019-05-11T19:32:38.336Z,76.34
2019-05-11T19:35:09.005Z,76.79
2019-05-11T19:37:38.689Z,77.11
2019-05-11T19:40:09.052Z,77.30
2019-05-11T19:42:54.743Z,77.59
2019-05-11T19:45:23.322Z,77.70
2019-05-11T19:47:51.785Z,77.69
2019-05-11T19:50:20.189Z,77.52
2019-05-11T19:52:48.625Z,77.31
2019-05-11T19:55:17.950Z,77.45
2019-05-11T19:57:48.223Z,77.64
2019-05-11T20:00:18.708Z,77.50
2019-05-11T20:02:47.120Z,77.56
2019-05-11T20:05:18.130Z,77.53
2019-05-11T20:07:48.304Z,77.21
2019-05-11T20:10:18.574Z,76.98
2019-05-11T20:12:48.089Z,77.06
2019-05-11T20:15:18.431Z,77.40
2019-05-11T20:17:48.629Z,77.11
2019-05-11T20:20:18.420Z,77.34
2019-05-11T20:22:48.275Z,77.32
2019-05-11T20:25:18.545Z,77.54
2019-05-11T20:27:48.280Z,78.01
2019-05-11T20:30:18.417Z,78.15
2019-05-11T20:32:48.349Z,78.04
2019-05-11T20:35:17.218Z,78.22
2019-05-11T20:37:45.621Z,78.35
2019-05-11T20:40:14.602Z,78.43
2019-05-11T20:42:42.998Z,78.66
2019-05-11T20:45:11.625Z,77.95
2019-05-11T20:47:40.031Z,76.48
2019-05-11T20:50:08.588Z,75.56
2019-05-11T20:52:38.953Z,74.17
2019-05-11T20:55:08.862Z,74.10
2019-05-11T20:57:39.188Z,73.76
2019-05-11T21:00:09.153Z,73.51
2019-05-11T21:02:58.756Z,72.65
2019-05-11T21:05:27.490Z,71.98
2019-05-11T21:07:57.802Z,70.46
2019-05-11T21:10:28.165Z,68.83
2019-05-11T21:12:57.714Z,68.28
2019-05-11T21:15:28.198Z,68.22
2019-05-11T21:17:58.445Z,68.25
2019-05-11T21:20:28.701Z,68.43
2019-05-11T21:22:58.029Z,68.22
2019-05-11T21:25:28.764Z,68.41
2019-05-11T21:27:57.951Z,68.78
2019-05-11T21:30:26.499Z,69.34
2019-05-11T21:32:54.901Z,68.27
2019-05-11T21:35:23.377Z,68.59
2019-05-11T21:37:51.904Z,68.16
2019-05-11T21:40:20.348Z,67.91
2019-05-11T21:42:48.765Z,67.10
2019-05-11T21:45:18.258Z,67.27
2019-05-11T21:47:48.951Z,67.39
2019-05-11T21:50:19.341Z,68.14
2019-05-11T21:52:48.411Z,68.28
2019-05-11T21:55:17.055Z,68.33
2019-05-11T21:57:49.454Z,68.32
2019-05-11T22:00:15.768Z,68.43
2019-05-11T22:02:44.222Z,68.58
2019-05-11T22:05:12.795Z,68.81
2019-05-11T22:07:41.864Z,68.63
2019-05-11T22:10:11.089Z,68.67
2019-05-11T22:12:39.554Z,68.09
2019-05-11T22:15:09.411Z,69.12
2019-05-11T22:17:39.250Z,68.74
2019-05-11T22:20:08.510Z,68.95
2019-05-11T22:22:39.073Z,69.37
2019-05-11T22:25:08.038Z,69.09
2019-05-11T22:27:38.897Z,69.39
2019-05-11T22:30:08.528Z,69.33
2019-05-11T22:32:38.325Z,69.57
2019-05-11T22:35:08.093Z,69.79
2019-05-11T22:37:38.605Z,69.93
2019-05-11T22:40:08.289Z,69.92
2019-05-11T22:42:37.076Z,70.57
2019-05-11T22:45:08.396Z,70.92
2019-05-11T22:47:39.377Z,70.56
2019-05-11T22:50:10.443Z,70.87
2019-05-11T22:52:40.612Z,70.92
2019-05-11T22:55:29.993Z,71.15
2019-05-11T22:57:58.486Z,70.89
2019-05-11T23:00:44.144Z,71.37
2019-05-11T23:03:12.728Z,71.37
2019-05-11T23:05:42.194Z,72.02
2019-05-11T23:08:10.937Z,72.05
2019-05-11T23:10:39.425Z,72.41
2019-05-11T23:13:11.152Z,72.47
2019-05-11T23:15:40.282Z,72.43
2019-05-11T23:18:08.698Z,72.03
2019-05-11T23:20:38.559Z,72.29
2019-05-11T23:23:08.831Z,72.63
2019-05-11T23:25:37.512Z,72.42
2019-05-11T23:28:05.941Z,72.89
2019-05-11T23:30:34.418Z,72.87
2019-05-11T23:33:02.833Z,72.62
2019-05-11T23:35:32.216Z,72.89
2019-05-11T23:38:00.635Z,73.21
2019-05-11T23:40:29.033Z,73.14
2019-05-11T23:42:57.952Z,73.23
2019-05-11T23:45:27.999Z,73.79
2019-05-11T23:47:58.860Z,73.95
2019-05-11T23:50:28.185Z,74.22
2019-05-11T23:53:06.112Z,74.12
2019-05-11T23:55:28.980Z,74.43
2019-05-11T23:57:57.626Z,74.57
